createdAt,value
2023-05-03T00:01:59.353Z,6.24
2023-05-03T00:04:28.692Z,6.30
2023-05-03T00:06:56.645Z,6.38
2023-05-03T00:09:24.557Z,6.28
2023-05-03T00:11:53.452Z,6.15
2023-05-03T00:14:21.486Z,6.17
2023-05-03T00:16:49.441Z,6.19
2023-05-03T00:19:30.491Z,6.18
2023-05-03T00:22:01.058Z,6.27
2023-05-03T00:24:28.955Z,6.26
2023-05-03T00:26:56.849Z,6.16
2023-05-03T00:29:24.811Z,6.08
2023-05-03T00:31:52.687Z,6.13
2023-05-03T00:34:20.903Z,6.17
2023-05-03T00:36:48.789Z,6.08
2023-05-03T00:39:18.167Z,5.73
2023-05-03T00:41:46.070Z,5.82
2023-05-03T00:44:13.963Z,6.00
2023-05-03T00:46:41.963Z,6.03
2023-05-03T00:49:10.484Z,5.99
2023-05-03T00:51:38.462Z,5.90
2023-05-03T00:54:06.428Z,5.93
2023-05-03T00:56:47.834Z,6.01
2023-05-03T00:59:19.709Z,5.99
2023-05-03T01:01:49.696Z,5.98
2023-05-03T01:04:18.522Z,6.11
2023-05-03T01:06:52.569Z,6.19
2023-05-03T01:09:24.459Z,5.81
2023-05-03T01:12:02.924Z,5.45
2023-05-03T01:14:37.856Z,5.40
2023-05-03T01:17:10.437Z,5.34
2023-05-03T01:19:41.276Z,5.15
2023-05-03T01:22:17.356Z,5.13
2023-05-03T01:24:47.503Z,5.23
2023-05-03T01:27:16.749Z,5.22
2023-05-03T01:29:44.915Z,5.33
2023-05-03T01:32:17.037Z,5.50
2023-05-03T01:34:51.617Z,5.62
2023-05-03T01:37:19.755Z,5.51
2023-05-03T01:39:51.874Z,5.35
2023-05-03T01:42:21.994Z,5.28
2023-05-03T01:44:51.002Z,5.17
2023-05-03T01:47:18.944Z,5.35
2023-05-03T01:49:46.825Z,5.36
2023-05-03T01:52:14.940Z,5.31
2023-05-03T01:54:42.838Z,5.30
2023-05-03T01:57:10.776Z,5.30
2023-05-03T01:59:40.111Z,5.12
2023-05-03T02:02:08.023Z,5.22
2023-05-03T02:04:35.997Z,5.24
2023-05-03T02:07:03.972Z,5.07
2023-05-03T02:09:31.873Z,4.94
2023-05-03T02:11:59.774Z,5.16
2023-05-03T02:14:27.740Z,5.40
2023-05-03T02:16:57.078Z,5.18
2023-05-03T02:19:25.110Z,5.00
2023-05-03T02:21:53.014Z,5.14
2023-05-03T02:24:21.190Z,5.10
2023-05-03T02:26:49.073Z,5.27
2023-05-03T02:29:17.108Z,5.36
2023-05-03T02:31:44.989Z,5.07
2023-05-03T02:34:14.345Z,5.14
2023-05-03T02:36:42.231Z,4.90
2023-05-03T02:39:10.733Z,4.76
2023-05-03T02:41:38.653Z,4.74
2023-05-03T02:44:06.575Z,4.99
2023-05-03T02:46:34.488Z,5.10
2023-05-03T02:49:02.475Z,5.04
2023-05-03T02:51:32.533Z,5.05
2023-05-03T02:54:00.574Z,5.18
2023-05-03T02:56:28.551Z,5.44
2023-05-03T02:58:56.462Z,5.55
2023-05-03T03:01:24.566Z,5.52
2023-05-03T03:03:52.687Z,5.52
2023-05-03T03:06:21.034Z,5.74
2023-05-03T03:08:50.368Z,5.72
2023-05-03T03:11:18.771Z,5.45
2023-05-03T03:13:46.647Z,5.34
2023-05-03T03:16:14.631Z,5.49
2023-05-03T03:18:42.534Z,5.51
2023-05-03T03:21:10.477Z,5.62
2023-05-03T03:23:38.373Z,5.54
2023-05-03T03:26:07.709Z,5.55
2023-05-03T03:28:35.583Z,5.53
2023-05-03T03:31:03.543Z,5.45
2023-05-03T03:33:31.420Z,5.47
2023-05-03T03:35:59.319Z,5.62
2023-05-03T03:38:27.599Z,5.69
2023-05-03T03:40:55.556Z,5.67
2023-05-03T03:43:24.926Z,5.70
2023-05-03T03:45:52.844Z,5.59
2023-05-03T03:48:20.858Z,5.52
2023-05-03T03:50:48.897Z,5.63
2023-05-03T03:53:16.792Z,5.72
2023-05-03T03:55:44.746Z,5.65
2023-05-03T03:58:12.720Z,5.59
2023-05-03T04:00:42.808Z,5.57
2023-05-03T04:03:11.135Z,5.63
2023-05-03T04:05:39.101Z,5.85
2023-05-03T04:08:07.290Z,6.00
2023-05-03T04:10:35.257Z,5.92
2023-05-03T04:13:03.215Z,5.82
2023-05-03T04:15:31.115Z,5.90
2023-05-03T04:18:00.586Z,6.03
2023-05-03T04:20:29.389Z,6.07
2023-05-03T04:22:57.302Z,6.01
2023-05-03T04:25:25.708Z,5.94
2023-05-03T04:27:53.805Z,5.99
2023-05-03T04:30:22.056Z,6.04
2023-05-03T04:32:49.973Z,6.14
2023-05-03T04:35:20.057Z,6.18
2023-05-03T04:37:48.052Z,6.10
2023-05-03T04:40:17.299Z,6.13
2023-05-03T04:42:45.452Z,6.14
2023-05-03T04:45:14.575Z,6.07
2023-05-03T04:47:43.269Z,6.07
2023-05-03T04:50:12.350Z,6.00
2023-05-03T04:52:41.751Z,6.06
2023-05-03T04:55:10.650Z,6.11
2023-05-03T04:57:38.513Z,6.09
2023-05-03T05:00:11.301Z,6.16
2023-05-03T05:02:39.341Z,6.24
2023-05-03T05:05:09.124Z,6.31
2023-05-03T05:07:37.031Z,6.31
2023-05-03T05:10:07.506Z,6.42
2023-05-03T05:12:35.448Z,6.48
2023-05-03T05:15:04.297Z,6.59
2023-05-03T05:17:32.300Z,6.62
2023-05-03T05:20:00.633Z,6.67
2023-05-03T05:22:28.731Z,6.65
2023-05-03T05:24:57.093Z,6.66
2023-05-03T05:27:27.072Z,6.72
2023-05-03T05:29:55.010Z,6.67
2023-05-03T05:32:23.121Z,6.80
2023-05-03T05:34:55.247Z,6.84
2023-05-03T05:37:23.376Z,6.74
2023-05-03T05:39:51.368Z,6.92
2023-05-03T05:42:19.311Z,6.95
2023-05-03T05:44:48.582Z,6.94
2023-05-03T05:47:16.679Z,7.02
2023-05-03T05:49:44.876Z,7.09
2023-05-03T05:52:12.848Z,7.16
2023-05-03T05:54:40.742Z,7.30
2023-05-03T05:57:08.864Z,7.36
2023-05-03T05:59:36.751Z,7.39
2023-05-03T06:02:06.144Z,7.45
2023-05-03T06:04:34.097Z,7.32
2023-05-03T06:07:01.994Z,7.37
2023-05-03T06:09:29.857Z,7.49
2023-05-03T06:11:57.756Z,7.66
2023-05-03T06:14:25.744Z,7.66
2023-05-03T06:16:54.129Z,7.56
2023-05-03T06:19:24.531Z,7.60
2023-05-03T06:21:52.429Z,7.75
2023-05-03T06:24:21.521Z,7.88
2023-05-03T06:26:49.708Z,8.04
2023-05-03T06:29:18.280Z,8.10
2023-05-03T06:31:46.529Z,8.09
2023-05-03T06:34:14.471Z,8.22
2023-05-03T06:36:43.716Z,8.25
2023-05-03T06:39:11.662Z,8.30
2023-05-03T06:41:39.568Z,8.41
2023-05-03T06:44:08.200Z,8.57
2023-05-03T06:46:36.207Z,8.67
2023-05-03T06:49:04.259Z,8.77
2023-05-03T06:51:33.187Z,8.75
2023-05-03T06:54:07.074Z,8.83
2023-05-03T06:56:35.255Z,8.91
2023-05-03T06:59:03.587Z,9.02
2023-05-03T07:01:32.139Z,9.04
2023-05-03T07:04:00.534Z,9.11
2023-05-03T07:06:28.533Z,9.19
2023-05-03T07:08:56.432Z,9.27
2023-05-03T07:11:25.821Z,9.15
2023-05-03T07:13:54.051Z,9.17
2023-05-03T07:16:22.114Z,9.23
2023-05-03T07:18:50.483Z,9.34
2023-05-03T07:21:18.412Z,9.45
2023-05-03T07:23:46.326Z,9.52
2023-05-03T07:26:14.287Z,9.41
2023-05-03T07:28:43.646Z,9.41
2023-05-03T07:31:12.171Z,9.45
2023-05-03T07:33:40.450Z,9.28
2023-05-03T07:36:08.846Z,9.51
2023-05-03T07:38:37.342Z,9.63
2023-05-03T07:41:05.331Z,9.64
2023-05-03T07:43:33.248Z,9.57
2023-05-03T07:46:02.639Z,9.61
2023-05-03T07:48:30.872Z,9.56
2023-05-03T07:50:58.848Z,9.47
2023-05-03T07:53:26.804Z,9.43
2023-05-03T07:55:56.819Z,9.48
2023-05-03T07:58:38.882Z,9.58
2023-05-03T08:01:09.640Z,9.80
2023-05-03T08:03:37.670Z,9.98
2023-05-03T08:06:06.004Z,10.08
2023-05-03T08:08:34.012Z,9.84
2023-05-03T08:11:01.923Z,9.91
2023-05-03T08:13:29.829Z,9.79
2023-05-03T08:15:57.904Z,10.11
2023-05-03T08:18:27.613Z,10.21
2023-05-03T08:20:55.787Z,10.33
2023-05-03T08:23:23.894Z,10.44
2023-05-03T08:25:52.178Z,10.28
2023-05-03T08:28:20.106Z,10.27
2023-05-03T08:30:48.236Z,10.22
2023-05-03T08:33:16.161Z,10.41
2023-05-03T08:35:46.843Z,10.48
2023-05-03T08:38:16.426Z,10.49
2023-05-03T08:40:44.990Z,10.54
2023-05-03T08:43:14.657Z,10.54
2023-05-03T08:45:42.678Z,10.63
2023-05-03T08:48:10.702Z,10.33
2023-05-03T08:50:42.401Z,10.51
2023-05-03T08:53:12.035Z,10.65
2023-05-03T08:55:40.355Z,10.74
2023-05-03T08:58:10.500Z,10.80
2023-05-03T09:00:38.509Z,10.85
2023-05-03T09:03:06.507Z,10.87
2023-05-03T09:05:35.888Z,10.50
2023-05-03T09:08:04.952Z,10.56
2023-05-03T09:10:34.863Z,10.60
2023-05-03T09:13:03.738Z,10.55
2023-05-03T09:15:32.073Z,10.78
2023-05-03T09:18:10.726Z,10.82
2023-05-03T09:20:40.269Z,10.59
2023-05-03T09:23:08.884Z,10.43
2023-05-03T09:25:48.156Z,10.27
2023-05-03T09:28:17.103Z,10.22
2023-05-03T09:30:45.626Z,9.99
2023-05-03T09:33:19.298Z,10.47
2023-05-03T09:35:57.550Z,10.55
2023-05-03T09:38:28.144Z,10.83
2023-05-03T09:40:57.648Z,10.62
2023-05-03T09:43:25.568Z,10.78
2023-05-03T09:45:53.559Z,11.01
2023-05-03T09:48:23.655Z,11.13
2023-05-03T09:50:52.402Z,11.08
2023-05-03T09:53:21.464Z,11.26
2023-05-03T09:55:51.052Z,11.01
2023-05-03T09:58:21.811Z,10.98
2023-05-03T10:00:52.596Z,11.19
2023-05-03T10:03:25.695Z,11.24
2023-05-03T10:05:54.336Z,10.92
2023-05-03T10:08:27.324Z,10.42
2023-05-03T10:10:55.367Z,10.32
2023-05-03T10:13:24.801Z,10.10
2023-05-03T10:15:55.732Z,10.32
2023-05-03T10:18:25.221Z,10.44
2023-05-03T10:20:58.323Z,10.82
2023-05-03T10:23:27.280Z,11.18
2023-05-03T10:26:17.199Z,10.92
2023-05-03T10:28:47.112Z,10.84
2023-05-03T10:31:47.044Z,10.94
2023-05-03T10:34:22.200Z,10.33
2023-05-03T10:36:52.630Z,10.53
2023-05-03T10:39:20.994Z,10.99
2023-05-03T10:41:59.668Z,10.76
2023-05-03T10:44:30.738Z,11.03
2023-05-03T10:46:58.772Z,11.18
2023-05-03T10:49:27.534Z,10.95
2023-05-03T10:51:55.708Z,11.06
2023-05-03T10:54:24.280Z,11.05
2023-05-03T10:56:57.205Z,10.91
2023-05-03T10:59:26.106Z,10.65
2023-05-03T11:01:56.938Z,10.66
2023-05-03T11:04:35.219Z,11.03
2023-05-03T11:07:04.762Z,11.07
2023-05-03T11:09:34.221Z,11.27
2023-05-03T11:12:06.875Z,11.42
2023-05-03T11:14:34.918Z,11.40
2023-05-03T11:17:04.708Z,11.48
2023-05-03T11:19:32.866Z,11.58
2023-05-03T11:22:00.777Z,11.58
2023-05-03T11:24:29.449Z,10.99
2023-05-03T11:26:57.810Z,11.16
2023-05-03T11:29:26.480Z,11.31
2023-05-03T11:31:54.782Z,11.53
2023-05-03T11:34:24.381Z,11.74
2023-05-03T11:36:52.681Z,11.58
2023-05-03T11:39:21.685Z,11.54
2023-05-03T11:42:04.897Z,11.21
2023-05-03T11:44:32.993Z,10.97
2023-05-03T11:47:01.640Z,11.55
2023-05-03T11:49:31.609Z,11.65
2023-05-03T11:51:59.603Z,11.91
2023-05-03T11:54:28.411Z,12.10
2023-05-03T11:57:00.185Z,11.86
2023-05-03T11:59:38.676Z,11.44
2023-05-03T12:02:09.526Z,10.86
2023-05-03T12:04:42.912Z,11.41
2023-05-03T12:07:14.684Z,11.57
2023-05-03T12:09:55.299Z,11.85
2023-05-03T12:12:32.469Z,12.31
2023-05-03T12:15:07.803Z,11.90
2023-05-03T12:17:38.713Z,11.56
2023-05-03T12:21:26.289Z,11.84
2023-05-03T12:23:15.553Z,12.29
2023-05-03T12:25:44.637Z,11.85
2023-05-03T12:28:20.181Z,11.47
2023-05-03T12:30:48.816Z,11.81
2023-05-03T12:33:21.934Z,11.89
2023-05-03T12:35:54.249Z,12.22
2023-05-03T12:38:24.467Z,12.66
2023-05-03T12:40:53.676Z,13.65
2023-05-03T12:43:21.946Z,14.07
2023-05-03T12:45:55.856Z,14.09
2023-05-03T12:48:37.951Z,13.33
2023-05-03T12:51:19.192Z,13.49
2023-05-03T12:53:54.145Z,13.71
2023-05-03T12:56:24.896Z,13.84
2023-05-03T12:59:15.049Z,13.31
2023-05-03T13:06:47.017Z,13.92
2023-05-03T13:09:20.455Z,14.57
2023-05-03T13:11:50.008Z,13.80
2023-05-03T13:14:18.274Z,14.35
2023-05-03T13:16:46.763Z,13.58
2023-05-03T13:19:14.987Z,13.07
2023-05-03T13:21:43.211Z,13.25
2023-05-03T13:24:12.493Z,12.25
2023-05-03T13:26:40.548Z,13.27
2023-05-03T13:29:08.445Z,13.96
2023-05-03T13:31:36.425Z,12.93
2023-05-03T13:34:04.308Z,12.83
2023-05-03T13:36:33.426Z,13.17
2023-05-03T13:39:02.001Z,13.45
2023-05-03T13:41:31.565Z,14.19
2023-05-03T13:43:59.485Z,14.61
2023-05-03T13:46:27.529Z,14.85
2023-05-03T13:48:56.512Z,14.91
2023-05-03T13:51:25.677Z,14.90
2023-05-03T13:53:53.578Z,15.00
2023-05-03T13:56:21.678Z,14.95
2023-05-03T13:58:50.994Z,15.11
2023-05-03T14:01:19.271Z,15.15
2023-05-03T14:03:47.357Z,15.06
2023-05-03T14:06:15.391Z,14.87
2023-05-03T14:08:43.277Z,15.05
2023-05-03T14:11:14.463Z,15.24
2023-05-03T14:13:55.678Z,15.75
2023-05-03T14:16:39.966Z,16.29
2023-05-03T14:19:10.557Z,16.78
2023-05-03T14:21:38.864Z,16.99
2023-05-03T14:24:07.570Z,17.07
2023-05-03T14:26:35.471Z,16.95
2023-05-03T14:29:04.234Z,16.30
2023-05-03T14:31:34.258Z,16.10
2023-05-03T14:34:02.302Z,16.12
2023-05-03T14:36:34.907Z,16.11
2023-05-03T14:39:03.146Z,16.66
2023-05-03T14:41:32.085Z,16.88
2023-05-03T14:44:00.005Z,16.96
2023-05-03T14:46:27.974Z,17.03
2023-05-03T14:48:57.393Z,17.38
2023-05-03T14:51:25.410Z,17.82
2023-05-03T14:53:53.315Z,18.00
2023-05-03T14:56:21.236Z,17.35
2023-05-03T14:58:49.121Z,17.35
2023-05-03T15:01:20.587Z,17.23
2023-05-03T15:03:48.636Z,17.28
2023-05-03T15:06:24.027Z,16.86
2023-05-03T15:08:52.378Z,17.21
2023-05-03T15:11:20.302Z,17.10
2023-05-03T15:13:48.404Z,17.43
2023-05-03T15:16:16.518Z,17.30
2023-05-03T15:18:48.182Z,17.99
2023-05-03T15:21:21.217Z,18.52
2023-05-03T15:23:49.581Z,17.48
2023-05-03T15:26:17.732Z,17.70
2023-05-03T15:28:45.743Z,18.26
2023-05-03T15:31:14.170Z,18.84
2023-05-03T15:33:43.134Z,19.33
2023-05-03T15:36:12.022Z,19.56
2023-05-03T15:38:41.912Z,19.56
2023-05-03T15:41:09.816Z,18.54
2023-05-03T15:44:24.626Z,17.99
2023-05-03T15:46:52.552Z,17.54
2023-05-03T15:49:20.509Z,15.98
2023-05-03T15:51:48.404Z,16.05
2023-05-03T15:54:17.690Z,16.95
2023-05-03T15:56:53.995Z,17.42
2023-05-03T15:59:21.892Z,17.93
2023-05-03T16:01:49.914Z,17.81
2023-05-03T16:04:17.898Z,18.25
2023-05-03T16:06:45.815Z,18.02
2023-05-03T16:09:14.458Z,18.30
2023-05-03T16:11:43.761Z,18.41
2023-05-03T16:14:12.125Z,18.33
2023-05-03T16:16:40.363Z,18.58
2023-05-03T16:19:08.875Z,18.82
2023-05-03T16:21:36.848Z,19.03
2023-05-03T16:24:05.300Z,18.70
2023-05-03T16:26:34.587Z,18.78
2023-05-03T16:29:03.900Z,18.65
2023-05-03T16:31:32.230Z,18.57
2023-05-03T16:34:00.370Z,18.79
2023-05-03T16:36:28.281Z,18.83
2023-05-03T16:38:56.231Z,18.94
2023-05-03T16:41:24.629Z,18.98
2023-05-03T16:43:52.919Z,18.99
2023-05-03T16:46:22.927Z,19.16
2023-05-03T16:48:51.904Z,19.45
2023-05-03T16:51:21.797Z,19.23
2023-05-03T16:53:49.694Z,19.18
2023-05-03T16:56:17.575Z,18.83
2023-05-03T16:58:45.786Z,18.63
2023-05-03T17:01:15.444Z,18.33
2023-05-03T17:03:44.846Z,18.52
2023-05-03T17:06:13.144Z,18.66
2023-05-03T17:08:41.269Z,18.90
2023-05-03T17:11:13.963Z,19.26
2023-05-03T17:13:42.078Z,19.36
2023-05-03T17:16:11.525Z,19.03
2023-05-03T17:18:40.655Z,19.21
2023-05-03T17:21:10.320Z,18.84
2023-05-03T17:23:39.527Z,18.15
2023-05-03T17:26:09.304Z,17.59
2023-05-03T17:28:37.657Z,17.73
2023-05-03T17:31:06.452Z,17.69
2023-05-03T17:33:35.004Z,17.51
2023-05-03T17:36:04.939Z,17.19
2023-05-03T17:38:35.595Z,16.57
2023-05-03T17:41:07.417Z,16.14
2023-05-03T17:43:35.740Z,15.54
2023-05-03T17:46:08.919Z,15.34
2023-05-03T17:48:39.319Z,15.17
2023-05-03T17:51:08.225Z,14.65
2023-05-03T17:53:37.548Z,14.69
2023-05-03T17:56:05.704Z,14.69
2023-05-03T17:58:33.612Z,14.49
2023-05-03T18:01:01.513Z,14.37
2023-05-03T18:03:29.499Z,14.40
2023-05-03T18:05:57.502Z,14.15
2023-05-03T18:08:25.435Z,14.05
2023-05-03T18:10:54.743Z,13.94
2023-05-03T18:13:22.877Z,13.83
2023-05-03T18:15:51.238Z,13.34
2023-05-03T18:18:19.222Z,13.48
2023-05-03T18:20:47.121Z,13.30
2023-05-03T18:23:15.540Z,13.31
2023-05-03T18:25:46.119Z,13.27
2023-05-03T18:28:15.398Z,13.20
2023-05-03T18:30:43.528Z,12.97
2023-05-03T18:33:12.075Z,13.04
2023-05-03T18:35:40.262Z,12.86
2023-05-03T18:38:08.218Z,12.74
2023-05-03T18:40:36.140Z,12.81
2023-05-03T18:43:04.200Z,12.71
2023-05-03T18:45:33.476Z,12.57
2023-05-03T18:48:01.407Z,12.28
2023-05-03T18:50:29.334Z,12.37
2023-05-03T18:52:57.207Z,12.40
2023-05-03T18:55:25.520Z,12.34
2023-05-03T18:57:53.400Z,12.24
2023-05-03T19:00:21.720Z,12.26
2023-05-03T19:02:51.064Z,12.04
2023-05-03T19:05:19.186Z,12.06
2023-05-03T19:07:47.793Z,12.02
2023-05-03T19:10:54.064Z,11.97
2023-05-03T19:13:22.055Z,11.75
2023-05-03T19:15:50.094Z,11.81
2023-05-03T19:18:19.363Z,11.73
2023-05-03T19:20:47.263Z,11.68
2023-05-03T19:23:15.196Z,11.67
2023-05-03T19:25:43.200Z,11.55
2023-05-03T19:28:11.806Z,11.37
2023-05-03T19:30:41.424Z,11.27
2023-05-03T19:33:09.410Z,11.24
2023-05-03T19:35:40.608Z,11.21
2023-05-03T19:38:08.670Z,11.09
2023-05-03T19:40:36.963Z,10.88
2023-05-03T19:43:04.851Z,11.00
2023-05-03T19:45:32.813Z,10.83
2023-05-03T19:48:00.895Z,10.78
2023-05-03T19:50:28.974Z,10.88
2023-05-03T19:52:58.265Z,10.93
2023-05-03T19:55:26.164Z,10.93
2023-05-03T19:57:54.257Z,10.86
2023-05-03T20:00:24.330Z,10.83
2023-05-03T20:02:52.274Z,10.79
2023-05-03T20:05:20.464Z,10.66
2023-05-03T20:07:49.154Z,10.55
2023-05-03T20:10:18.704Z,10.55
2023-05-03T20:12:46.606Z,10.56
2023-05-03T20:15:14.735Z,10.56
2023-05-03T20:17:42.690Z,10.50
2023-05-03T20:20:12.143Z,10.40
2023-05-03T20:22:40.660Z,10.34
2023-05-03T20:25:09.605Z,10.27
2023-05-03T20:27:38.912Z,10.22
2023-05-03T20:30:08.393Z,10.15
2023-05-03T20:32:37.098Z,10.09
2023-05-03T20:35:05.986Z,10.01
2023-05-03T20:37:35.377Z,9.96
2023-05-03T20:40:04.662Z,9.93
2023-05-03T20:42:32.868Z,9.91
2023-05-03T20:45:02.146Z,9.87
2023-05-03T20:47:30.036Z,9.80
2023-05-03T20:49:57.954Z,9.79
2023-05-03T20:52:25.952Z,9.74
2023-05-03T20:54:53.879Z,9.69
2023-05-03T20:57:21.784Z,9.63
2023-05-03T20:59:49.948Z,9.58
2023-05-03T21:02:19.220Z,9.53
2023-05-03T21:04:47.143Z,9.48
2023-05-03T21:07:15.036Z,9.45
2023-05-03T21:09:42.917Z,9.40
2023-05-03T21:12:10.837Z,9.29
2023-05-03T21:14:38.720Z,9.18
2023-05-03T21:17:08.850Z,9.06
2023-05-03T21:19:39.404Z,9.04
2023-05-03T21:22:08.569Z,9.10
2023-05-03T21:24:36.643Z,9.10
2023-05-03T21:27:04.602Z,9.07
2023-05-03T21:29:32.508Z,9.14
2023-05-03T21:32:00.615Z,9.16
2023-05-03T21:34:28.700Z,9.10
2023-05-03T21:36:57.952Z,9.08
2023-05-03T21:39:26.007Z,9.01
2023-05-03T21:41:54.438Z,8.91
2023-05-03T21:44:22.403Z,8.85
2023-05-03T21:46:50.408Z,8.93
2023-05-03T21:49:18.393Z,8.88
2023-05-03T21:51:46.300Z,8.94
2023-05-03T21:54:16.137Z,8.88
2023-05-03T21:56:44.087Z,8.87
2023-05-03T21:59:11.994Z,8.82
2023-05-03T22:01:40.366Z,8.80
2023-05-03T22:04:08.695Z,8.75
2023-05-03T22:06:37.867Z,8.67
2023-05-03T22:09:06.936Z,8.69
2023-05-03T22:11:36.302Z,8.66
2023-05-03T22:14:08.475Z,8.63
2023-05-03T22:16:37.461Z,8.64
2023-05-03T22:19:05.600Z,8.61
2023-05-03T22:21:33.516Z,8.59
2023-05-03T22:24:01.480Z,8.47
2023-05-03T22:26:29.737Z,8.33
2023-05-03T22:28:59.044Z,8.37
2023-05-03T22:31:27.550Z,8.27
2023-05-03T22:33:55.474Z,8.21
2023-05-03T22:36:23.475Z,8.21
2023-05-03T22:38:55.083Z,8.27
2023-05-03T22:41:23.141Z,8.19
2023-05-03T22:43:51.037Z,8.18
2023-05-03T22:46:20.673Z,8.11
2023-05-03T22:48:48.658Z,8.05
2023-05-03T22:51:16.724Z,8.11
2023-05-03T22:53:44.707Z,8.12
2023-05-03T22:56:13.386Z,8.06
2023-05-03T22:58:41.263Z,7.97
2023-05-03T23:01:11.589Z,7.97
2023-05-03T23:03:41.589Z,7.99
2023-05-03T23:06:09.599Z,7.91
2023-05-03T23:08:37.610Z,7.97
2023-05-03T23:11:05.785Z,7.91
2023-05-03T23:13:33.674Z,7.95
2023-05-03T23:16:02.444Z,7.99
2023-05-03T23:18:30.387Z,8.01
2023-05-03T23:20:59.923Z,7.97
2023-05-03T23:23:27.980Z,7.92
2023-05-03T23:25:56.006Z,7.92
2023-05-03T23:28:24.216Z,7.87
2023-05-03T23:30:52.466Z,7.84
2023-05-03T23:33:20.953Z,7.81
2023-05-03T23:35:50.066Z,7.80
2023-05-03T23:38:19.484Z,7.75
2023-05-03T23:40:47.458Z,7.75
2023-05-03T23:43:15.405Z,7.72
2023-05-03T23:45:43.427Z,7.68
2023-05-03T23:48:11.367Z,7.62
2023-05-03T23:50:39.312Z,7.63
2023-05-03T23:53:07.384Z,7.65
2023-05-03T23:55:36.714Z,7.58
2023-05-03T23:58:04.807Z,7.59
